createdAt,value
2022-11-01T00:02:00.622Z,18.02
2022-11-01T00:04:28.436Z,21.05
2022-11-01T00:06:56.390Z,17.05
2022-11-01T00:09:23.953Z,17.88
2022-11-01T00:11:51.679Z,24.27
2022-11-01T00:14:20.371Z,18.40
2022-11-01T00:16:48.205Z,22.13
2022-11-01T00:19:15.957Z,24.90
2022-11-01T00:21:43.543Z,17.80
2022-11-01T00:24:11.502Z,19.33
2022-11-01T00:26:39.220Z,17.05
2022-11-01T00:29:06.958Z,20.20
2022-11-01T00:31:34.779Z,22.23
2022-11-01T00:34:05.705Z,20.63
2022-11-01T00:36:34.512Z,23.33
2022-11-01T00:39:02.927Z,24.13
2022-11-01T00:41:30.620Z,23.42
2022-11-01T00:43:58.201Z,21.95
2022-11-01T00:46:26.230Z,26.13
2022-11-01T00:48:53.850Z,30.27
2022-11-01T00:51:21.651Z,15.30
2022-11-01T00:53:49.363Z,22.55
2022-11-01T00:56:17.220Z,16.95
2022-11-01T00:58:44.969Z,20.85
2022-11-01T01:01:12.884Z,14.80
2022-11-01T01:03:40.555Z,16.48
2022-11-01T01:06:08.248Z,18.55
2022-11-01T01:08:35.896Z,16.10
2022-11-01T01:11:03.521Z,17.55
2022-11-01T01:13:31.293Z,16.58
2022-11-01T01:15:59.001Z,20.70
2022-11-01T01:18:27.678Z,18.25
2022-11-01T01:21:02.958Z,23.48
2022-11-01T01:23:30.556Z,10.93
2022-11-01T01:25:58.277Z,23.65
2022-11-01T01:28:25.961Z,11.50
2022-11-01T01:30:53.500Z,18.77
2022-11-01T01:33:21.083Z,15.88
2022-11-01T01:35:48.735Z,15.38
2022-11-01T01:38:16.302Z,16.52
2022-11-01T01:40:44.239Z,20.80
2022-11-01T01:43:12.699Z,24.40
2022-11-01T01:45:41.699Z,24.50
2022-11-01T01:48:20.953Z,30.40
2022-11-01T01:50:57.378Z,27.05
2022-11-01T01:53:29.812Z,16.48
2022-11-01T01:56:01.011Z,17.85
2022-11-01T01:58:33.657Z,19.25
2022-11-01T02:01:01.424Z,23.25
2022-11-01T02:03:32.851Z,21.98
2022-11-01T02:06:12.455Z,24.13
2022-11-01T02:08:44.161Z,28.02
2022-11-01T02:11:13.569Z,24.52
2022-11-01T02:13:41.188Z,20.70
2022-11-01T02:16:20.311Z,29.52
2022-11-01T02:19:18.425Z,28.55
2022-11-01T02:22:16.037Z,25.70
2022-11-01T02:24:58.598Z,36.90
2022-11-01T02:27:39.276Z,20.83
2022-11-01T02:33:10.784Z,17.25
2022-11-01T02:35:54.287Z,12.13
2022-11-01T02:38:32.420Z,6.85
2022-11-01T02:41:13.174Z,5.63
2022-11-01T02:46:54.388Z,5.07
2022-11-01T02:49:23.506Z,7.00
2022-11-01T02:51:52.683Z,2.55
2022-11-01T02:54:41.660Z,6.10
2022-11-01T02:57:34.133Z,6.22
2022-11-01T03:00:24.787Z,6.93
2022-11-01T03:03:16.876Z,5.32
2022-11-01T03:06:00.875Z,3.97
2022-11-01T03:08:51.523Z,7.20
2022-11-01T03:11:26.148Z,8.65
2022-11-01T03:14:08.746Z,8.20
2022-11-01T03:17:12.372Z,10.00
2022-11-01T03:20:02.391Z,11.00
2022-11-01T03:25:26.875Z,8.13
2022-11-01T03:27:58.682Z,13.38
2022-11-01T03:30:29.395Z,17.63
2022-11-01T03:32:58.547Z,17.70
2022-11-01T03:35:35.063Z,12.32
2022-11-01T03:38:07.147Z,16.10
2022-11-01T03:40:36.210Z,21.05
2022-11-01T03:43:12.402Z,12.38
2022-11-01T03:45:40.900Z,23.77
2022-11-01T03:48:08.784Z,13.52
2022-11-01T03:50:36.565Z,26.88
2022-11-01T03:53:04.090Z,22.33
2022-11-01T03:55:31.606Z,16.08
2022-11-01T03:58:00.528Z,26.52
2022-11-01T04:00:34.342Z,20.42
2022-11-01T04:03:02.726Z,18.08
2022-11-01T04:05:31.708Z,28.63
2022-11-01T04:07:59.536Z,25.35
2022-11-01T04:10:29.179Z,21.67
2022-11-01T04:12:57.381Z,24.73
2022-11-01T04:15:44.994Z,11.55
2022-11-01T04:21:21.666Z,20.05
2022-11-01T04:23:49.302Z,19.05
2022-11-01T04:26:19.813Z,19.23
2022-11-01T04:28:57.270Z,22.52
2022-11-01T04:31:36.707Z,21.25
2022-11-01T04:34:05.435Z,12.95
2022-11-01T04:36:33.005Z,22.73
2022-11-01T04:39:00.671Z,27.75
2022-11-01T04:41:29.660Z,22.27
2022-11-01T04:43:59.974Z,14.77
2022-11-01T04:46:31.924Z,21.40
2022-11-01T04:48:59.503Z,23.15
2022-11-01T04:51:27.091Z,14.68
2022-11-01T04:53:54.765Z,26.67
2022-11-01T04:56:22.334Z,22.95
2022-11-01T04:58:49.872Z,23.25
2022-11-01T05:01:17.503Z,16.98
2022-11-01T05:03:45.150Z,24.50
2022-11-01T05:06:12.731Z,21.27
2022-11-01T05:08:40.304Z,20.55
2022-11-01T05:11:07.877Z,21.20
2022-11-01T05:13:36.174Z,16.17
2022-11-01T05:16:18.789Z,27.60
2022-11-01T05:18:48.035Z,22.13
2022-11-01T05:21:16.081Z,21.75
2022-11-01T05:23:43.966Z,17.58
2022-11-01T05:26:17.569Z,20.60
2022-11-01T05:28:45.209Z,24.65
2022-11-01T05:31:13.171Z,18.10
2022-11-01T05:33:40.833Z,24.85
2022-11-01T05:36:08.684Z,22.30
2022-11-01T05:38:36.430Z,19.42
2022-11-01T05:41:04.534Z,19.55
2022-11-01T05:43:34.952Z,29.02
2022-11-01T05:46:07.504Z,24.80
2022-11-01T05:48:38.780Z,30.13
2022-11-01T05:51:06.800Z,25.83
2022-11-01T05:53:34.658Z,25.17
2022-11-01T05:56:02.936Z,27.67
2022-11-01T05:58:31.134Z,25.48
2022-11-01T06:01:00.714Z,21.95
2022-11-01T06:03:28.649Z,20.80
2022-11-01T06:05:56.440Z,20.95
2022-11-01T06:08:24.334Z,19.90
2022-11-01T06:10:52.653Z,21.13
2022-11-01T06:13:20.386Z,19.92
2022-11-01T06:15:48.148Z,26.92
2022-11-01T06:18:15.894Z,24.27
2022-11-01T06:20:43.658Z,26.80
2022-11-01T06:23:11.931Z,29.00
2022-11-01T06:25:39.627Z,26.17
2022-11-01T06:28:07.572Z,23.38
2022-11-01T06:30:39.166Z,28.08
2022-11-01T06:33:07.208Z,25.13
2022-11-01T06:35:35.094Z,29.85
2022-11-01T06:38:04.555Z,30.35
2022-11-01T06:40:35.483Z,19.80
2022-11-01T06:43:05.888Z,25.75
2022-11-01T06:48:02.249Z,31.90
2022-11-01T06:50:30.283Z,29.63
2022-11-01T06:52:59.744Z,32.55
2022-11-01T06:55:29.088Z,34.70
2022-11-01T06:57:58.988Z,29.25
2022-11-01T07:00:29.006Z,30.02
2022-11-01T07:03:05.527Z,28.48
2022-11-01T07:05:37.747Z,31.00
2022-11-01T07:08:08.061Z,25.80
2022-11-01T07:10:37.850Z,25.55
2022-11-01T07:13:07.131Z,30.07
2022-11-01T07:15:35.315Z,23.40
2022-11-01T07:18:06.396Z,32.28
2022-11-01T07:20:41.273Z,36.05
2022-11-01T07:23:15.653Z,33.40
2022-11-01T07:25:44.119Z,28.05
2022-11-01T07:28:11.733Z,27.95
2022-11-01T07:30:39.494Z,25.38
2022-11-01T07:33:07.314Z,29.75
2022-11-01T07:35:35.734Z,28.50
2022-11-01T07:38:06.418Z,22.55
2022-11-01T07:40:39.742Z,24.30
2022-11-01T07:43:07.633Z,28.92
2022-11-01T07:45:35.799Z,24.10
2022-11-01T07:48:10.362Z,34.53
2022-11-01T07:50:39.483Z,22.60
2022-11-01T07:53:16.237Z,16.20
2022-11-01T07:55:45.026Z,38.22
2022-11-01T07:58:13.711Z,26.55
2022-11-01T08:00:43.886Z,28.92
2022-11-01T08:03:14.225Z,25.13
2022-11-01T08:05:42.835Z,33.45
2022-11-01T08:08:10.969Z,33.60
2022-11-01T08:10:39.276Z,27.25
2022-11-01T08:13:23.566Z,24.92
2022-11-01T08:15:53.528Z,23.88
2022-11-01T08:18:24.261Z,24.60
2022-11-01T08:20:51.921Z,27.20
2022-11-01T08:23:20.187Z,26.17
2022-11-01T08:25:47.810Z,29.80
2022-11-01T08:28:18.303Z,29.77
2022-11-01T08:30:48.695Z,21.40
2022-11-01T08:33:16.363Z,29.75
2022-11-01T08:35:49.866Z,23.38
2022-11-01T08:38:18.663Z,25.13
2022-11-01T08:40:46.304Z,19.15
2022-11-01T08:43:13.977Z,22.50
2022-11-01T08:45:41.625Z,22.33
2022-11-01T08:48:09.918Z,26.52
2022-11-01T08:50:38.318Z,26.40
2022-11-01T08:53:07.868Z,16.50
2022-11-01T08:56:00.160Z,25.95
2022-11-01T08:58:39.938Z,31.05
2022-11-01T09:01:07.610Z,19.23
2022-11-01T09:03:35.251Z,18.33
2022-11-01T09:06:03.105Z,22.00
2022-11-01T09:08:30.868Z,15.38
2022-11-01T09:10:59.502Z,20.40
2022-11-01T09:13:27.380Z,23.55
2022-11-01T09:15:58.434Z,22.23
2022-11-01T09:18:28.819Z,21.85
2022-11-01T09:20:56.908Z,20.85
2022-11-01T09:23:24.624Z,23.27
2022-11-01T09:25:52.803Z,30.08
2022-11-01T09:28:20.370Z,21.05
2022-11-01T09:30:50.139Z,31.50
2022-11-01T09:33:29.859Z,28.10
2022-11-01T09:35:59.701Z,20.25
2022-11-01T09:38:28.003Z,26.38
2022-11-01T09:41:35.696Z,27.70
2022-11-01T09:44:06.349Z,30.30
2022-11-01T09:46:55.442Z,28.75
2022-11-01T09:49:36.940Z,21.02
2022-11-01T09:52:06.386Z,29.15
2022-11-01T09:54:34.342Z,26.77
2022-11-01T09:57:20.805Z,30.70
2022-11-01T10:00:04.242Z,31.05
2022-11-01T10:02:51.994Z,28.73
2022-11-01T10:05:36.058Z,29.77
2022-11-01T10:08:09.754Z,27.25
2022-11-01T10:10:59.659Z,21.75
2022-11-01T10:13:27.319Z,25.17
2022-11-01T10:16:42.661Z,22.75
2022-11-01T10:19:15.839Z,24.88
2022-11-01T10:21:50.408Z,24.30
2022-11-01T10:24:25.518Z,20.70
2022-11-01T10:27:18.683Z,23.52
2022-11-01T10:30:15.833Z,19.35
2022-11-01T10:32:48.625Z,29.02
2022-11-01T10:35:21.410Z,19.95
2022-11-01T10:38:19.089Z,18.75
2022-11-01T10:41:10.179Z,22.67
2022-11-01T10:43:42.464Z,25.25
2022-11-01T10:46:18.089Z,17.13
2022-11-01T10:48:57.023Z,15.25
2022-11-01T10:51:28.106Z,21.80
2022-11-01T10:54:00.003Z,11.75
2022-11-01T10:56:44.761Z,14.82
2022-11-01T10:59:24.939Z,16.08
2022-11-01T11:01:55.056Z,10.75
2022-11-01T11:04:24.871Z,16.30
2022-11-01T11:06:53.088Z,14.77
2022-11-01T11:09:37.982Z,10.88
2022-11-01T11:12:13.536Z,9.60
2022-11-01T11:14:42.759Z,13.52
2022-11-01T11:17:45.936Z,13.50
2022-11-01T11:20:25.371Z,8.18
2022-11-01T11:22:53.512Z,15.23
2022-11-01T11:25:28.510Z,14.85
2022-11-01T11:27:56.726Z,16.25
2022-11-01T11:30:33.306Z,13.98
2022-11-01T11:33:02.895Z,13.73
2022-11-01T11:35:32.857Z,9.77
2022-11-01T11:38:04.311Z,20.98
2022-11-01T11:40:40.966Z,14.15
2022-11-01T11:43:33.130Z,16.60
2022-11-01T11:46:24.713Z,21.00
2022-11-01T11:48:58.264Z,20.52
2022-11-01T11:51:28.883Z,20.63
2022-11-01T11:54:15.433Z,13.75
2022-11-01T11:56:45.079Z,15.82
2022-11-01T11:59:33.043Z,16.63
2022-11-01T12:02:08.022Z,15.65
2022-11-01T12:04:45.348Z,23.48
2022-11-01T12:07:27.720Z,12.65
2022-11-01T12:09:57.137Z,15.98
2022-11-01T12:12:33.291Z,16.63
2022-11-01T12:15:03.378Z,16.35
2022-11-01T12:20:14.812Z,17.17
2022-11-01T12:23:16.580Z,12.50
2022-11-01T12:25:46.435Z,15.73
2022-11-01T12:28:39.636Z,12.18
2022-11-01T12:31:21.740Z,15.20
2022-11-01T12:34:06.822Z,15.93
2022-11-01T12:36:43.711Z,18.98
2022-11-01T12:39:42.151Z,12.35
2022-11-01T12:42:14.786Z,17.90
2022-11-01T12:44:47.571Z,14.55
2022-11-01T12:47:43.821Z,16.90
2022-11-01T12:50:24.017Z,19.17
2022-11-01T12:53:02.762Z,19.02
2022-11-01T12:55:39.756Z,22.30
2022-11-01T12:58:15.848Z,19.63
2022-11-01T13:01:01.837Z,21.88
2022-11-01T13:04:00.095Z,24.75
2022-11-01T13:06:36.497Z,25.25
2022-11-01T13:09:49.077Z,16.00
2022-11-01T13:12:22.425Z,13.45
2022-11-01T13:15:28.254Z,13.30
2022-11-01T13:18:22.060Z,15.25
2022-11-01T13:20:58.209Z,18.15
2022-11-01T13:23:25.741Z,11.07
2022-11-01T13:25:59.448Z,22.63
2022-11-01T13:28:33.809Z,12.82
2022-11-01T13:31:14.099Z,14.95
2022-11-01T13:34:28.411Z,13.25
2022-11-01T13:36:58.749Z,16.10
2022-11-01T13:39:38.091Z,12.98
2022-11-01T13:42:13.050Z,17.73
2022-11-01T13:44:48.308Z,11.45
2022-11-01T13:47:48.343Z,8.80
2022-11-01T13:50:16.630Z,13.20
2022-11-01T13:53:03.576Z,8.75
2022-11-01T13:55:53.308Z,7.63
2022-11-01T13:58:23.666Z,5.00
2022-11-01T14:00:54.435Z,11.95
2022-11-01T14:03:26.731Z,4.45
2022-11-01T14:06:25.642Z,7.10
2022-11-01T14:09:27.979Z,10.85
2022-11-01T14:12:07.764Z,8.68
2022-11-01T14:14:47.281Z,9.97
2022-11-01T14:17:20.991Z,7.60
2022-11-01T14:19:59.085Z,7.63
2022-11-01T14:22:32.767Z,10.73
2022-11-01T14:28:18.774Z,6.75
2022-11-01T14:30:49.548Z,8.32
2022-11-01T14:33:20.426Z,4.63
2022-11-01T14:35:55.298Z,4.80
2022-11-01T14:38:35.692Z,10.80
2022-11-01T14:41:04.488Z,6.00
2022-11-01T14:43:44.241Z,6.22
2022-11-01T14:46:19.303Z,12.57
2022-11-01T14:48:46.827Z,10.95
2022-11-01T14:51:32.398Z,10.85
2022-11-01T14:54:41.703Z,10.02
2022-11-01T14:57:20.097Z,14.65
2022-11-01T14:59:47.672Z,14.60
2022-11-01T15:02:15.366Z,10.73
2022-11-01T15:04:45.388Z,12.50
2022-11-01T15:07:42.162Z,10.88
2022-11-01T15:10:12.691Z,11.20
2022-11-01T15:12:48.230Z,16.15
2022-11-01T15:15:27.232Z,15.02
2022-11-01T15:18:13.089Z,13.63
2022-11-01T15:20:49.159Z,12.02
2022-11-01T15:23:22.345Z,14.55
2022-11-01T15:25:54.522Z,20.05
2022-11-01T15:28:26.285Z,14.75
2022-11-01T15:30:57.645Z,12.07
2022-11-01T15:33:33.534Z,17.52
2022-11-01T15:36:19.040Z,17.58
2022-11-01T15:38:55.074Z,19.67
2022-11-01T15:41:29.658Z,21.48
2022-11-01T15:43:59.918Z,18.27
2022-11-01T15:46:33.007Z,21.35
2022-11-01T15:49:06.174Z,17.63
2022-11-01T15:51:37.546Z,13.82
2022-11-01T15:54:16.832Z,16.13
2022-11-01T15:56:51.028Z,14.27
2022-11-01T15:59:34.206Z,21.05
2022-11-01T16:02:04.154Z,15.38
2022-11-01T16:04:44.455Z,19.92
2022-11-01T16:07:16.659Z,19.52
2022-11-01T16:09:49.145Z,20.08
2022-11-01T16:12:32.125Z,23.17
2022-11-01T16:15:06.358Z,24.00
2022-11-01T16:17:39.038Z,15.75
2022-11-01T16:20:36.848Z,17.60
2022-11-01T16:23:14.891Z,15.68
2022-11-01T16:25:42.471Z,21.67
2022-11-01T16:28:09.970Z,18.00
2022-11-01T16:30:50.494Z,20.73
2022-11-01T16:33:30.417Z,22.77
2022-11-01T16:36:00.840Z,20.60
2022-11-01T16:38:28.826Z,19.65
2022-11-01T16:41:01.899Z,22.80
2022-11-01T16:43:32.828Z,17.08
2022-11-01T16:46:00.971Z,22.50
2022-11-01T16:48:31.607Z,25.55
2022-11-01T16:53:30.430Z,12.95
2022-11-01T16:56:34.860Z,28.73
2022-11-01T16:59:00.168Z,18.75
2022-11-01T17:04:04.126Z,22.65
2022-11-01T17:06:36.186Z,24.80
2022-11-01T17:09:14.588Z,20.88
2022-11-01T17:11:47.800Z,20.33
2022-11-01T17:14:15.688Z,19.73
2022-11-01T17:16:45.317Z,14.68
2022-11-01T17:19:21.422Z,9.50
2022-11-01T17:21:50.950Z,21.55
2022-11-01T17:24:22.055Z,23.67
2022-11-01T17:26:50.572Z,23.35
2022-11-01T17:29:18.276Z,19.85
2022-11-01T17:31:45.881Z,18.77
2022-11-01T17:34:13.721Z,26.85
2022-11-01T17:36:45.961Z,28.60
2022-11-01T17:39:13.703Z,19.88
2022-11-01T17:41:41.377Z,22.02
2022-11-01T17:44:13.947Z,26.10
2022-11-01T17:46:42.807Z,18.95
2022-11-01T17:49:15.600Z,17.88
2022-11-01T17:51:43.905Z,21.75
2022-11-01T17:54:11.564Z,15.50
2022-11-01T17:56:39.250Z,12.15
2022-11-01T17:59:08.668Z,16.27
2022-11-01T18:01:38.642Z,17.38
2022-11-01T18:04:06.391Z,16.77
2022-11-01T18:06:34.031Z,15.55
2022-11-01T18:09:01.697Z,18.00
2022-11-01T18:11:41.361Z,19.20
2022-11-01T18:14:45.818Z,16.98
2022-11-01T18:17:48.449Z,17.67
2022-11-01T18:20:40.787Z,11.68
2022-11-01T18:23:17.986Z,12.98
2022-11-01T18:25:48.063Z,15.65
2022-11-01T18:28:23.221Z,14.38
2022-11-01T18:30:59.778Z,14.27
2022-11-01T18:33:35.723Z,16.05
2022-11-01T18:36:06.419Z,15.48
2022-11-01T18:41:22.396Z,12.65
2022-11-01T18:43:54.161Z,11.63
2022-11-01T18:46:26.882Z,13.80
2022-11-01T18:49:03.569Z,16.23
2022-11-01T18:51:33.760Z,11.00
2022-11-01T18:54:10.202Z,18.10
2022-11-01T18:56:43.494Z,10.88
2022-11-01T18:59:16.574Z,17.35
2022-11-01T19:01:44.521Z,15.65
2022-11-01T19:04:22.004Z,14.82
2022-11-01T19:06:49.919Z,12.75
2022-11-01T19:09:24.317Z,23.52
2022-11-01T19:12:10.963Z,11.60
2022-11-01T19:14:40.158Z,14.25
2022-11-01T19:17:25.916Z,16.35
2022-11-01T19:19:54.646Z,17.80
2022-11-01T19:22:43.696Z,25.98
2022-11-01T19:25:27.918Z,19.13
2022-11-01T19:27:59.239Z,21.48
2022-11-01T19:30:32.342Z,18.30
2022-11-01T19:33:29.210Z,17.83
2022-11-01T19:35:58.186Z,16.90
2022-11-01T19:38:28.027Z,15.85
2022-11-01T19:40:55.741Z,15.93
2022-11-01T19:43:26.460Z,26.35
2022-11-01T19:48:30.195Z,25.58
2022-11-01T19:50:58.348Z,14.35
2022-11-01T19:53:31.440Z,26.25
2022-11-01T19:55:59.074Z,20.05
2022-11-01T19:58:50.424Z,30.30
2022-11-01T20:01:19.788Z,12.52
2022-11-01T20:04:02.443Z,21.08
2022-11-01T20:06:38.180Z,12.73
2022-11-01T20:09:12.839Z,18.92
2022-11-01T20:11:43.179Z,17.80
2022-11-01T20:14:11.044Z,13.27
2022-11-01T20:16:38.835Z,15.68
2022-11-01T20:19:06.431Z,16.20
2022-11-01T20:21:34.234Z,14.60
2022-11-01T20:24:03.870Z,12.93
2022-11-01T20:26:31.613Z,18.50
2022-11-01T20:28:59.538Z,13.48
2022-11-01T20:31:27.745Z,13.20
2022-11-01T20:33:55.404Z,14.48
2022-11-01T20:36:23.236Z,8.63
2022-11-01T20:38:50.927Z,9.82
2022-11-01T20:41:19.412Z,13.30
2022-11-01T20:43:47.164Z,13.45
2022-11-01T20:46:14.755Z,15.15
2022-11-01T20:48:42.427Z,14.43
2022-11-01T20:51:10.527Z,9.88
2022-11-01T20:53:38.443Z,8.93
2022-11-01T20:56:06.788Z,13.38
2022-11-01T20:58:40.536Z,8.02
2022-11-01T21:01:19.846Z,10.98
2022-11-01T21:03:47.571Z,7.28
2022-11-01T21:06:18.759Z,13.45
2022-11-01T21:08:47.470Z,7.75
2022-11-01T21:11:44.132Z,7.60
2022-11-01T21:14:24.650Z,9.57
2022-11-01T21:16:52.968Z,11.75
2022-11-01T21:19:22.640Z,11.48
2022-11-01T21:21:57.160Z,10.50
2022-11-01T21:24:31.743Z,13.70
2022-11-01T21:27:12.826Z,13.13
2022-11-01T21:29:48.174Z,10.43
2022-11-01T21:32:30.102Z,10.40
2022-11-01T21:34:58.546Z,19.30
2022-11-01T21:37:29.019Z,20.13
2022-11-01T21:40:05.683Z,12.63
2022-11-01T21:42:36.253Z,17.48
2022-11-01T21:45:30.264Z,11.38
2022-11-01T21:48:16.468Z,12.70
2022-11-01T21:50:44.134Z,14.43
2022-11-01T21:53:11.695Z,16.70
2022-11-01T21:55:39.246Z,15.95
2022-11-01T21:58:06.807Z,14.95
2022-11-01T22:00:34.411Z,23.45
2022-11-01T22:03:02.268Z,19.33
2022-11-01T22:05:30.074Z,11.98
2022-11-01T22:07:57.624Z,13.60
2022-11-01T22:10:25.199Z,15.38
2022-11-01T22:12:52.828Z,18.42
2022-11-01T22:15:20.471Z,16.90
2022-11-01T22:17:48.052Z,19.67
2022-11-01T22:20:15.803Z,19.75
2022-11-01T22:22:43.469Z,21.65
2022-11-01T22:25:11.317Z,15.80
2022-11-01T22:27:38.988Z,21.77
2022-11-01T22:30:07.357Z,23.08
2022-11-01T22:32:36.070Z,20.70
2022-11-01T22:35:03.783Z,23.60
2022-11-01T22:37:34.865Z,18.30
2022-11-01T22:40:13.287Z,27.00
2022-11-01T22:42:41.329Z,19.88
2022-11-01T22:45:15.717Z,19.08
2022-11-01T22:47:47.090Z,19.63
2022-11-01T22:50:26.745Z,18.08
2022-11-01T22:52:54.464Z,17.30
2022-11-01T22:55:23.798Z,14.40
2022-11-01T22:57:58.598Z,12.38
2022-11-01T23:00:33.598Z,16.52
2022-11-01T23:03:21.113Z,15.82
2022-11-01T23:05:54.731Z,15.90
2022-11-01T23:08:41.492Z,16.50
2022-11-01T23:11:54.285Z,11.90
2022-11-01T23:14:36.251Z,27.75
2022-11-01T23:17:33.172Z,12.60
2022-11-01T23:20:01.803Z,24.75
2022-11-01T23:22:35.291Z,18.30
2022-11-01T23:25:04.481Z,19.30
2022-11-01T23:27:32.439Z,10.27
2022-11-01T23:30:02.038Z,22.20
2022-11-01T23:32:30.629Z,15.20
2022-11-01T23:35:18.037Z,17.77
2022-11-01T23:37:46.335Z,10.38
2022-11-01T23:40:16.376Z,17.63
2022-11-01T23:42:44.337Z,17.48
2022-11-01T23:45:32.254Z,19.23
2022-11-01T23:48:00.896Z,10.75
2022-11-01T23:50:37.095Z,13.43
2022-11-01T23:53:09.890Z,14.93
2022-11-01T23:55:40.849Z,12.98
2022-11-01T23:58:17.392Z,11.63
